Topacio — EA3917 — position and weather

sailwx.info

Track history (hours):
 
Tides and Currents Weather Stations Pressure Air Temp Water Temp Dewpoint Dewpoint Depression Visibility Wind Speed Wind Dir Waves Ship Positions

Topacio

Last reported at 2017-Dec-07 15:43 UTC. Time now 2017-Dec-15 12:19 UTC.
Position N 37°49' W 000°45'.

Length 24 m.

Type: Fishing. MMSI: 224217120.

Date/timePositionNaut miles runAvg speedWind from/ knotsBaromVisibWave heightAir tempDewpointWater temp
2017-Dec-07 15:43N 37°49' W 000°45'  
2017-Dec-01 15:25N 37°49' W 000°45'0 0.0
2017-Nov-29 12:32N 37°49' W 000°45'0 0.0
2017-Nov-29 12:30N 37°49' W 000°45'0 0.0
2017-Nov-29 12:00N 37°49' W 000°45'0 0.0
2017-Nov-29 11:30N 37°49' W 000°45'2 4.1
2017-Nov-29 11:00N 37°51' W 000°44'5 9.3
2017-Nov-29 10:30N 37°55' W 000°42'3 2.1
2017-Nov-29 09:03N 37°58' W 000°41'0 4.8
2017-Nov-29 09:00N 37°58' W 000°41'7 1.2
2017-Nov-29 02:45N 37°55' W 000°33'310.5
2017-Nov-29 02:30N 37°53' W 000°34'4 8.4
2017-Nov-29 02:00N 37°50' W 000°38'5 9.2
2017-Nov-29 01:30N 37°49' W 000°44'1 0.0
2017-Nov-28 07:12N 37°49' W 000°45'1 3.5
2017-Nov-28 07:00N 37°49' W 000°44'4 8.6
2017-Nov-28 06:30N 37°51' W 000°39'4 4.8
2017-Nov-28 05:36N 37°52' W 000°34'1 9.3
2017-Nov-28 05:30N 37°51' W 000°35'9 8.7
2017-Nov-28 04:30N 37°43' W 000°33'5 9.6
2017-Nov-28 04:01N 37°38' W 000°35'2 4.4
2017-Nov-28 03:30N 37°40' W 000°37'4 7.0
2017-Nov-28 03:00N 37°37' W 000°39'5 9.9
2017-Nov-28 02:30N 37°33' W 000°44'4 1.0
2017-Nov-27 22:46N 37°32' W 000°48'2 9.0
2017-Nov-27 22:30N 37°33' W 000°45'8 8.3
2017-Nov-27 21:35N 37°39' W 000°41'1 9.3
2017-Nov-27 21:30N 37°40' W 000°41'5 9.3
2017-Nov-27 21:00N 37°45' W 000°41'5 9.6
2017-Nov-27 20:30N 37°48' W 000°44'  
Track history (hours):
 
Tides and Currents Weather Stations Pressure Air Temp Water Temp Dewpoint Dewpoint Depression Visibility Wind Speed Wind Dir Waves Ship Positions

Topacio

Last reported at 2017-Dec-07 15:43 UTC. Time now 2017-Dec-15 12:19 UTC.
Position N 37°49' W 000°45'.

Length 24 m.

Type: Fishing. MMSI: 224217120.

Date/timePositionNaut miles runAvg speedWind from/ knotsBaromVisibWave heightAir tempDewpointWater temp
2017-Dec-07 15:43N 37°49' W 000°45'  
2017-Dec-01 15:25N 37°49' W 000°45'0 0.0
2017-Nov-29 12:32N 37°49' W 000°45'0 0.0
2017-Nov-29 12:30N 37°49' W 000°45'0 0.0
2017-Nov-29 12:00N 37°49' W 000°45'0 0.0
2017-Nov-29 11:30N 37°49' W 000°45'2 4.1
2017-Nov-29 11:00N 37°51' W 000°44'5 9.3
2017-Nov-29 10:30N 37°55' W 000°42'3 2.1
2017-Nov-29 09:03N 37°58' W 000°41'0 4.8
2017-Nov-29 09:00N 37°58' W 000°41'7 1.2
2017-Nov-29 02:45N 37°55' W 000°33'310.5
2017-Nov-29 02:30N 37°53' W 000°34'4 8.4
2017-Nov-29 02:00N 37°50' W 000°38'5 9.2
2017-Nov-29 01:30N 37°49' W 000°44'1 0.0
2017-Nov-28 07:12N 37°49' W 000°45'1 3.5
2017-Nov-28 07:00N 37°49' W 000°44'4 8.6
2017-Nov-28 06:30N 37°51' W 000°39'4 4.8
2017-Nov-28 05:36N 37°52' W 000°34'1 9.3
2017-Nov-28 05:30N 37°51' W 000°35'9 8.7
2017-Nov-28 04:30N 37°43' W 000°33'5 9.6
2017-Nov-28 04:01N 37°38' W 000°35'2 4.4
2017-Nov-28 03:30N 37°40' W 000°37'4 7.0
2017-Nov-28 03:00N 37°37' W 000°39'5 9.9
2017-Nov-28 02:30N 37°33' W 000°44'4 1.0
2017-Nov-27 22:46N 37°32' W 000°48'2 9.0
2017-Nov-27 22:30N 37°33' W 000°45'8 8.3
2017-Nov-27 21:35N 37°39' W 000°41'1 9.3
2017-Nov-27 21:30N 37°40' W 000°41'5 9.3
2017-Nov-27 21:00N 37°45' W 000°41'5 9.6
2017-Nov-27 20:30N 37°48' W 000°44'  

Dump ship's entire track history